This is the latest recevied weather packets stored in our database for station/object YC0ACE-13. If no packets are shown the sender has not sent any weather packets the latest 1 day(s).
| Time | Temp. | Humidity | Pressure | Rain* | Wind** | Luminosity | Snow |
|---|---|---|---|---|---|---|---|
| 1778027724 | 27.78° C | 84% | 1015.2 hPa | 0 mm | - | 168 W/m² | - |
| 1778027425 | 27.78° C | 84% | 1015.2 hPa | 0 mm | - | 136 W/m² | - |
| 1778027126 | 27.78° C | 84% | 1015.2 hPa | 0 mm | - | 175 W/m² | - |
| 1778026825 | 27.78° C | 84% | 1015.2 hPa | 0 mm | - | 125 W/m² | - |
| 1778025926 | 27.22° C | 87% | 1015.2 hPa | 0 mm | - | 135 W/m² | - |
| 1778023225 | 26.67° C | 89% | 1014.9 hPa | 0 mm | - | 33 W/m² | - |
| 1778022926 | 26.67° C | 89% | 1014.9 hPa | 0 mm | - | 23 W/m² | - |
| 1778021724 | 26.67° C | 89% | 1014.6 hPa | 0 mm | - | 3 W/m² | - |
| 1778019025 | 26.11° C | 90% | 1014.2 hPa | 0 mm | - | 0 W/m² | - |
| 1778017826 | 26.11° C | 90% | 1014.2 hPa | 0 mm | - | 0 W/m² | - |
| 1778017225 | 26.11° C | 91% | 1014.2 hPa | 0 mm | - | 0 W/m² | - |
| 1778016025 | 26.11° C | 91% | 1013.9 hPa | 0 mm | - | 0 W/m² | - |
| 1778015726 | 26.11° C | 91% | 1013.9 hPa | 0 mm | - | 0 W/m² | - |
| 1778013625 | 26.67° C | 90% | 1013.9 hPa | 0 mm | - | 0 W/m² | - |
| 1778013025 | 26.67° C | 90% | 1013.9 hPa | 0 mm | - | 0 W/m² | - |
| 1778009424 | 26.67° C | 88% | 1014.6 hPa | 0 mm | - | 0 W/m² | - |
| 1778008825 | 26.67° C | 88% | 1014.6 hPa | 0 mm | - | 0 W/m² | - |
| 1778008524 | 26.67° C | 88% | 1014.6 hPa | 0 mm | - | 0 W/m² | - |
| 1778007025 | 26.67° C | 88% | 1014.6 hPa | 0 mm | - | 0 W/m² | - |
| 1778006125 | 26.67° C | 87% | 1014.9 hPa | 0 mm | - | 0 W/m² | - |
| 1778005825 | 26.67° C | 87% | 1014.9 hPa | 0 mm | - | 0 W/m² | - |
| 1778005528 | 26.67° C | 87% | 1015.2 hPa | 0 mm | - | 0 W/m² | - |
| 1778004925 | 26.67° C | 86% | 1015.6 hPa | 0 mm | - | 0 W/m² | - |
| 1778004025 | 26.67° C | 86% | 1015.2 hPa | 0 mm | - | 0 W/m² | - |
| 1778003128 | 26.67° C | 85% | 1015.6 hPa | 0 mm | - | 0 W/m² | - |
* Rain latest hour (hover to see other rain measurements)
** Current wind speed in m/s (hover to see current wind gust speed)